Ouetti, Mississippi
Current Conditions -  °F | °C
As of 8:15 AM on Sunday 21 Dec 2014 (Local Time) from KPIB Reporting Station
Overcast Overcast  
Wind Chill: 38°   Ceiling: 200
Heat Index: 43°   Visibility: 0.25mi
Dew Point: 39°   Wind: 8mph
Humidity: 87%   Direction: 50°NE
Pressure: 30.14"   Gusts: NA
Location:  31.4763°N, 89.0262°W
Report Text: KPIB 211415Z AUTO 05007KT 1/4SM OVC002 06/04 A3014 RMK AO1
Loading
Personal Weather Stations






























Interactive Weather Map New forecast layout! Learn more

10-Day Weather Forecast

Advertisements
Track Severe Weather on mobile